Time;durP1;ratioP1;P1;durP2;ratioP2;P2;SDS_P1;SDS_P2;PMS_P1;PMS_P2;Temp;Humidity;BMP_temperature;BMP_pressure;BME280_temperature;BME280_humidity;BME280_pressure;Samples;Min_cycle;Max_cycle;Signal;HPM_P1;HPM_P2
2023/07/08 00:02:12;;;;;;;7.35;4.80;;;;;;;;;;5041030;28;20028;-77
2023/07/08 00:04:38;;;;;;;8.40;4.97;;;;;;;;;;5057903;28;20033;-77
2023/07/08 00:07:04;;;;;;;11.25;5.80;;;;;;;;;;5041533;28;20040;-77
2023/07/08 00:09:30;;;;;;;8.68;5.60;;;;;;;;;;5050905;28;20420;-77
2023/07/08 00:12:16;;;;;;;10.45;5.55;;;;;;;;;;5051183;28;20354;-77
2023/07/08 00:14:41;;;;;;;8.15;4.85;;;;;;;;;;5034336;28;20028;-77
2023/07/08 00:17:12;;;;;;;7.55;4.50;;;;;;;;;;5042766;28;20052;-77
2023/07/08 00:19:39;;;;;;;7.18;4.70;;;;;;;;;;5035568;28;20045;-77
2023/07/08 00:22:13;;;;;;;5.93;4.35;;;;;;;;;;5027617;28;20041;-79
2023/07/08 00:24:41;;;;;;;8.13;4.57;;;;;;;;;;5039058;28;20526;-78
2023/07/08 00:27:10;;;;;;;8.93;4.32;;;;;;;;;;5029082;28;20115;-78
2023/07/08 00:29:36;;;;;;;7.70;4.40;;;;;;;;;;5032146;28;20068;-78
2023/07/08 00:32:01;;;;;;;8.48;4.60;;;;;;;;;;5041841;28;20068;-78
2023/07/08 00:34:27;;;;;;;7.55;4.03;;;;;;;;;;5020786;28;20110;-77
2023/07/08 00:36:52;;;;;;;8.30;4.53;;;;;;;;;;5052300;28;20048;-78
2023/07/08 00:39:17;;;;;;;6.30;4.10;;;;;;;;;;5017998;28;20037;-78
2023/07/08 00:41:43;;;;;;;6.70;4.00;;;;;;;;;;5037652;28;20044;-78
2023/07/08 00:44:12;;;;;;;7.20;4.03;;;;;;;;;;5044915;28;20547;-78
2023/07/08 00:46:48;;;;;;;7.15;4.72;;;;;;;;;;5035189;28;20555;-79
2023/07/08 00:49:25;;;;;;;7.72;4.03;;;;;;;;;;5037132;28;20172;-78
2023/07/08 00:51:50;;;;;;;6.85;4.13;;;;;;;;;;5043070;28;20520;-78
2023/07/08 00:54:27;;;;;;;7.43;4.00;;;;;;;;;;5059687;28;20044;-78
2023/07/08 00:56:59;;;;;;;8.60;4.45;;;;;;;;;;5045021;28;20046;-78
2023/07/08 00:59:29;;;;;;;6.82;4.30;;;;;;;;;;5015848;28;20492;-78
2023/07/08 01:02:00;;;;;;;7.40;4.00;;;;;;;;;;5023956;28;20842;-77
2023/07/08 01:04:32;;;;;;;7.45;4.07;;;;;;;;;;5017876;28;20037;-78
2023/07/08 01:06:59;;;;;;;6.53;3.55;;;;;;;;;;5021437;28;20034;-78
2023/07/08 01:09:27;;;;;;;7.22;3.92;;;;;;;;;;5033838;28;20031;-78
2023/07/08 01:11:54;;;;;;;6.65;4.10;;;;;;;;;;5031055;28;20518;-78
2023/07/08 01:14:20;;;;;;;5.82;3.85;;;;;;;;;;5033328;28;20501;-77
2023/07/08 01:16:46;;;;;;;6.55;4.10;;;;;;;;;;5032179;28;20149;-78
2023/07/08 01:19:15;;;;;;;5.78;3.78;;;;;;;;;;5034290;28;20067;-78
2023/07/08 01:21:53;;;;;;;6.65;4.40;;;;;;;;;;5038378;28;20112;-77
2023/07/08 01:24:18;;;;;;;7.13;4.00;;;;;;;;;;5051430;28;20041;-78
2023/07/08 01:26:44;;;;;;;7.25;4.10;;;;;;;;;;5048369;28;20024;-78
2023/07/08 01:29:11;;;;;;;6.35;3.97;;;;;;;;;;5037614;28;20045;-78
2023/07/08 01:31:36;;;;;;;6.18;3.70;;;;;;;;;;5037957;28;20408;-78
2023/07/08 01:34:02;;;;;;;6.72;3.80;;;;;;;;;;5057411;28;20033;-77
2023/07/08 01:36:34;;;;;;;5.85;3.85;;;;;;;;;;5072858;28;20067;-78
2023/07/08 01:39:00;;;;;;;6.47;3.80;;;;;;;;;;5072317;28;20420;-78
2023/07/08 01:41:25;;;;;;;8.35;3.78;;;;;;;;;;5064058;28;20033;-78
2023/07/08 01:43:50;;;;;;;7.75;4.55;;;;;;;;;;5071085;28;20040;-78
2023/07/08 01:46:24;;;;;;;7.05;3.97;;;;;;;;;;5057078;28;20029;-78
2023/07/08 01:48:53;;;;;;;6.22;3.65;;;;;;;;;;5054638;28;20400;-78
2023/07/08 01:51:18;;;;;;;6.72;3.70;;;;;;;;;;5054810;28;20134;-78
2023/07/08 01:53:44;;;;;;;8.23;4.35;;;;;;;;;;5053387;28;20247;-78
2023/07/08 01:56:11;;;;;;;6.45;3.78;;;;;;;;;;5039680;28;20037;-78
2023/07/08 01:58:37;;;;;;;8.30;3.75;;;;;;;;;;5069284;28;20661;-78
2023/07/08 02:01:03;;;;;;;6.53;3.80;;;;;;;;;;5031962;28;20040;-78
2023/07/08 02:03:28;;;;;;;5.75;3.70;;;;;;;;;;5038255;28;20040;-78
2023/07/08 02:05:54;;;;;;;6.07;3.72;;;;;;;;;;5039595;28;20369;-79
2023/07/08 02:08:20;;;;;;;5.32;3.60;;;;;;;;;;5038920;28;20037;-78
2023/07/08 02:10:50;;;;;;;5.50;3.60;;;;;;;;;;5034518;28;20557;-78
2023/07/08 02:13:15;;;;;;;5.20;3.67;;;;;;;;;;5020948;28;20033;-78
2023/07/08 02:15:41;;;;;;;5.95;3.80;;;;;;;;;;5051411;28;20052;-78
2023/07/08 02:18:12;;;;;;;6.03;3.65;;;;;;;;;;5053207;28;20098;-77
2023/07/08 02:20:37;;;;;;;7.18;4.10;;;;;;;;;;5042346;28;20041;-78
2023/07/08 02:23:02;;;;;;;8.68;3.92;;;;;;;;;;5046002;28;20174;-78
2023/07/08 02:25:28;;;;;;;5.25;3.70;;;;;;;;;;5055401;28;20048;-78
2023/07/08 02:27:57;;;;;;;6.25;3.90;;;;;;;;;;5068638;28;20032;-78
2023/07/08 02:30:23;;;;;;;6.93;3.80;;;;;;;;;;5044183;28;20033;-78
2023/07/08 02:32:56;;;;;;;5.68;3.92;;;;;;;;;;5059635;28;20111;-78
2023/07/08 02:35:23;;;;;;;5.63;3.42;;;;;;;;;;5052337;28;20047;-78
2023/07/08 02:37:48;;;;;;;6.93;3.65;;;;;;;;;;5045610;28;20496;-78
2023/07/08 02:40:14;;;;;;;6.63;3.72;;;;;;;;;;5039611;28;20036;-78
2023/07/08 02:42:39;;;;;;;5.70;3.63;;;;;;;;;;5054672;28;20033;-78
2023/07/08 02:45:05;;;;;;;7.32;3.80;;;;;;;;;;5033708;28;20408;-78
2023/07/08 02:47:31;;;;;;;6.47;3.70;;;;;;;;;;5041285;28;20024;-77
2023/07/08 02:49:58;;;;;;;6.47;3.88;;;;;;;;;;5051583;28;20029;-77
2023/07/08 02:52:24;;;;;;;;;;;;;;;;;;5030031;28;20039;-78
2023/07/08 02:54:49;;;;;;;6.20;3.80;;;;;;;;;;5035849;28;20308;-78
2023/07/08 02:57:17;;;;;;;7.30;3.92;;;;;;;;;;5026333;28;20051;-78
2023/07/08 02:59:42;;;;;;;5.80;3.50;;;;;;;;;;5022196;28;20065;-77
2023/07/08 03:02:08;;;;;;;5.38;3.53;;;;;;;;;;5020555;28;20072;-78
2023/07/08 03:04:38;;;;;;;4.65;3.55;;;;;;;;;;5019580;28;20044;-78
2023/07/08 03:07:04;;;;;;;7.82;3.50;;;;;;;;;;5024636;28;20485;-78
2023/07/08 03:09:32;;;;;;;7.35;3.50;;;;;;;;;;5048168;28;20036;-78
2023/07/08 03:11:57;;;;;;;;;;;;;;;;;;5058086;28;20028;-78
2023/07/08 03:14:22;;;;;;;7.80;3.75;;;;;;;;;;5057200;28;20288;-78
2023/07/08 03:16:48;;;;;;;5.93;3.85;;;;;;;;;;5037890;28;20045;-78
2023/07/08 03:19:15;;;;;;;6.78;3.92;;;;;;;;;;5016376;28;20033;-78
2023/07/08 03:21:41;;;;;;;7.85;3.50;;;;;;;;;;5048518;28;20037;-77
2023/07/08 03:24:12;;;;;;;5.18;3.50;;;;;;;;;;5032541;28;20412;-78
2023/07/08 03:26:38;;;;;;;5.40;3.88;;;;;;;;;;5040147;28;20052;-78
2023/07/08 03:29:03;;;;;;;5.78;3.78;;;;;;;;;;5048044;28;20068;-79
2023/07/08 03:31:29;;;;;;;5.88;3.65;;;;;;;;;;5029799;28;20072;-77
2023/07/08 03:33:57;;;;;;;5.60;3.78;;;;;;;;;;5020549;28;20041;-78
2023/07/08 03:36:22;;;;;;;6.40;3.80;;;;;;;;;;5037053;28;20398;-78
2023/07/08 03:38:50;;;;;;;6.00;3.53;;;;;;;;;;5040914;28;20098;-78
2023/07/08 03:41:15;;;;;;;5.47;3.78;;;;;;;;;;5049512;28;20393;-78
2023/07/08 03:43:41;;;;;;;7.97;3.90;;;;;;;;;;5056452;28;20036;-78
2023/07/08 03:46:10;;;;;;;6.95;3.63;;;;;;;;;;5068748;28;20032;-78
2023/07/08 03:48:35;;;;;;;6.13;3.63;;;;;;;;;;5037045;28;20048;-78
2023/07/08 03:51:01;;;;;;;5.75;3.38;;;;;;;;;;5035834;28;20392;-78
2023/07/08 03:53:26;;;;;;;6.85;3.72;;;;;;;;;;5021240;28;20039;-78
2023/07/08 03:55:51;;;;;;;5.43;3.53;;;;;;;;;;5022282;28;20108;-78
2023/07/08 03:58:17;;;;;;;6.85;3.90;;;;;;;;;;5014778;28;20041;-77
2023/07/08 04:00:42;;;;;;;5.20;3.50;;;;;;;;;;5030998;28;20515;-77
2023/07/08 04:03:10;;;;;;;5.45;3.83;;;;;;;;;;5023505;28;20161;-77
2023/07/08 04:05:36;;;;;;;5.20;3.47;;;;;;;;;;5040735;28;20446;-76
2023/07/08 04:08:02;;;;;;;5.82;3.55;;;;;;;;;;5029331;28;20132;-78
2023/07/08 04:10:27;;;;;;;7.00;3.83;;;;;;;;;;5036418;28;20037;-78
2023/07/08 04:12:53;;;;;;;6.32;3.50;;;;;;;;;;5017940;28;20036;-78
2023/07/08 04:15:18;;;;;;;6.20;3.22;;;;;;;;;;5024751;28;20029;-78
2023/07/08 04:17:49;;;;;;;5.55;3.78;;;;;;;;;;5020493;28;20163;-78
2023/07/08 04:20:16;;;;;;;5.60;3.55;;;;;;;;;;5044222;28;20028;-78
2023/07/08 04:22:41;;;;;;;5.63;3.63;;;;;;;;;;5035475;28;20103;-78
2023/07/08 04:25:07;;;;;;;6.53;3.60;;;;;;;;;;5044300;28;20032;-78
2023/07/08 04:27:33;;;;;;;6.18;3.40;;;;;;;;;;5044616;28;20025;-78
2023/07/08 04:29:59;;;;;;;8.05;3.55;;;;;;;;;;5051679;28;20032;-78
2023/07/08 04:32:24;;;;;;;5.78;3.50;;;;;;;;;;5057837;28;20037;-79
2023/07/08 04:34:51;;;;;;;7.60;3.60;;;;;;;;;;5040428;28;20045;-79
2023/07/08 04:37:19;;;;;;;6.03;3.30;;;;;;;;;;5038326;28;20396;-78
2023/07/08 04:39:45;;;;;;;5.32;3.30;;;;;;;;;;5020218;28;20037;-78
2023/07/08 04:42:13;;;;;;;5.38;3.22;;;;;;;;;;5008279;28;20111;-78
2023/07/08 04:44:38;;;;;;;;;;;;;;;;;;5035496;28;20051;-78
2023/07/08 04:47:03;;;;;;;5.20;3.05;;;;;;;;;;5034578;28;19916;-78
2023/07/08 04:49:33;;;;;;;6.82;3.53;;;;;;;;;;5022773;28;20069;-78
2023/07/08 04:52:02;;;;;;;7.47;3.47;;;;;;;;;;5017894;28;20481;-77
2023/07/08 04:54:30;;;;;;;5.15;3.20;;;;;;;;;;5037742;28;20036;-78
2023/07/08 04:56:55;;;;;;;7.03;3.58;;;;;;;;;;5030453;28;20050;-78
2023/07/08 04:59:23;;;;;;;9.45;3.80;;;;;;;;;;5039646;28;20520;-78
2023/07/08 05:01:49;;;;;;;5.25;3.58;;;;;;;;;;5040784;28;20029;-78
2023/07/08 05:04:16;;;;;;;5.50;3.17;;;;;;;;;;5020380;28;20389;-78
2023/07/08 05:06:41;;;;;;;5.88;3.08;;;;;;;;;;5040126;28;21012;-79
2023/07/08 05:09:07;;;;;;;5.95;2.88;;;;;;;;;;5051815;28;20036;-79
2023/07/08 05:11:34;;;;;;;7.18;3.40;;;;;;;;;;5051622;28;20523;-78
2023/07/08 05:13:59;;;;;;;5.43;3.10;;;;;;;;;;5042771;28;20189;-79
2023/07/08 05:16:25;;;;;;;9.27;3.38;;;;;;;;;;5044662;28;20145;-78
2023/07/08 05:18:51;;;;;;;5.50;3.03;;;;;;;;;;5042337;28;20361;-78
2023/07/08 05:21:18;;;;;;;5.47;3.10;;;;;;;;;;5036273;28;20029;-78
2023/07/08 05:23:45;;;;;;;5.93;3.13;;;;;;;;;;5040408;28;20033;-79
2023/07/08 05:26:10;;;;;;;5.07;3.03;;;;;;;;;;5046601;28;20036;-78
2023/07/08 05:28:41;;;;;;;5.65;3.00;;;;;;;;;;5058944;28;20060;-79
2023/07/08 05:31:07;;;;;;;4.80;3.08;;;;;;;;;;5046397;28;20680;-78
2023/07/08 05:33:33;;;;;;;4.60;2.97;;;;;;;;;;5037091;28;20040;-78
2023/07/08 05:36:02;;;;;;;8.00;3.17;;;;;;;;;;5036325;28;20032;-78
2023/07/08 05:38:28;;;;;;;5.65;2.90;;;;;;;;;;5058152;28;20028;-78
2023/07/08 05:40:56;;;;;;;6.10;2.75;;;;;;;;;;5053544;28;20040;-78
2023/07/08 05:43:22;;;;;;;6.60;3.00;;;;;;;;;;5038902;28;20528;-79
2023/07/08 05:45:47;;;;;;;5.07;2.80;;;;;;;;;;5039446;28;20043;-78
2023/07/08 05:48:13;;;;;;;4.50;2.55;;;;;;;;;;5055701;28;20040;-79
2023/07/08 05:50:39;;;;;;;6.00;3.30;;;;;;;;;;5043830;28;20036;-78
2023/07/08 05:53:05;;;;;;;3.97;2.35;;;;;;;;;;5055277;28;20033;-78
2023/07/08 05:55:32;;;;;;;5.78;2.88;;;;;;;;;;5058926;28;20068;-78
2023/07/08 05:57:57;;;;;;;6.10;2.80;;;;;;;;;;5040617;28;20037;-78
2023/07/08 06:00:23;;;;;;;3.60;2.30;;;;;;;;;;5046829;28;20037;-78
2023/07/08 06:02:48;;;;;;;5.15;2.92;;;;;;;;;;5056362;28;20029;-78
2023/07/08 06:05:21;;;;;;;5.15;2.70;;;;;;;;;;5054333;28;20060;-78
2023/07/08 06:07:46;;;;;;;4.80;2.60;;;;;;;;;;5028678;28;20037;-78
2023/07/08 06:10:12;;;;;;;4.78;2.70;;;;;;;;;;5054764;28;20044;-79
2023/07/08 06:12:41;;;;;;;7.07;2.85;;;;;;;;;;5049494;28;20041;-78
2023/07/08 06:15:27;;;;;;;6.60;2.88;;;;;;;;;;5037645;28;20058;-79
2023/07/08 06:17:52;;;;;;;11.60;4.13;;;;;;;;;;5044235;28;20416;-79
2023/07/08 06:20:17;;;;;;;7.97;3.17;;;;;;;;;;5010993;28;20045;-79
2023/07/08 06:22:43;;;;;;;7.28;2.97;;;;;;;;;;5017061;28;20506;-78
2023/07/08 06:25:08;;;;;;;10.27;3.30;;;;;;;;;;4993937;28;20134;-77
2023/07/08 06:27:33;;;;;;;6.57;3.00;;;;;;;;;;5010851;28;20029;-80
2023/07/08 06:29:59;;;;;;;5.85;2.80;;;;;;;;;;5013752;28;20044;-78
2023/07/08 06:32:24;;;;;;;6.18;3.00;;;;;;;;;;5024592;28;20435;-79
2023/07/08 06:34:50;;;;;;;5.07;2.40;;;;;;;;;;5009408;28;20049;-83
2023/07/08 06:37:15;;;;;;;8.15;2.92;;;;;;;;;;5010713;28;20032;-80
2023/07/08 06:39:40;;;;;;;4.72;2.67;;;;;;;;;;5015503;28;20578;-81
2023/07/08 06:42:06;;;;;;;3.90;2.50;;;;;;;;;;5012875;28;20033;-81
2023/07/08 06:44:31;;;;;;;4.43;2.63;;;;;;;;;;5000978;28;20168;-80
2023/07/08 06:46:56;;;;;;;3.92;2.30;;;;;;;;;;5009928;28;20043;-80
2023/07/08 06:49:22;;;;;;;5.07;2.70;;;;;;;;;;5042239;28;20041;-82
2023/07/08 06:51:48;;;;;;;5.85;2.50;;;;;;;;;;5022473;28;20037;-83
2023/07/08 06:54:13;;;;;;;4.55;2.42;;;;;;;;;;5010556;28;20045;-80
2023/07/08 06:56:40;;;;;;;4.30;2.33;;;;;;;;;;5030873;28;20037;-80
2023/07/08 06:59:06;;;;;;;5.10;2.60;;;;;;;;;;5037634;28;20049;-81
2023/07/08 07:01:32;;;;;;;4.82;2.47;;;;;;;;;;5034816;28;20105;-81
2023/07/08 07:03:57;;;;;;;7.93;2.80;;;;;;;;;;5046203;28;20060;-80
2023/07/08 07:06:22;;;;;;;4.65;2.50;;;;;;;;;;5025164;28;20028;-81
2023/07/08 07:08:48;;;;;;;5.60;2.30;;;;;;;;;;5045165;28;20557;-84
2023/07/08 07:11:14;;;;;;;4.38;2.40;;;;;;;;;;5045584;28;20045;-81
2023/07/08 07:13:39;;;;;;;5.35;2.40;;;;;;;;;;5039447;28;20047;-79
2023/07/08 07:16:05;;;;;;;4.82;2.40;;;;;;;;;;5044255;28;20053;-82
2023/07/08 07:18:30;;;;;;;4.82;2.50;;;;;;;;;;5045622;28;20098;-82
2023/07/08 07:20:55;;;;;;;4.35;2.47;;;;;;;;;;5053002;28;20031;-80
2023/07/08 07:23:21;;;;;;;4.32;2.40;;;;;;;;;;5038737;28;20041;-80
2023/07/08 07:25:49;;;;;;;3.80;2.20;;;;;;;;;;5053446;28;20037;-84
2023/07/08 07:28:16;;;;;;;4.65;2.20;;;;;;;;;;5043560;28;20492;-81
2023/07/08 07:30:46;;;;;;;6.97;2.35;;;;;;;;;;5044999;28;20025;-80
2023/07/08 07:33:12;;;;;;;4.50;2.28;;;;;;;;;;5054677;28;20549;-81
2023/07/08 07:35:45;;;;;;;5.45;2.45;;;;;;;;;;5052231;28;20071;-80
2023/07/08 07:38:11;;;;;;;4.05;2.25;;;;;;;;;;5044968;28;20433;-80
2023/07/08 07:40:36;;;;;;;5.32;2.40;;;;;;;;;;5044418;28;20036;-80
2023/07/08 07:43:02;;;;;;;7.45;2.60;;;;;;;;;;5055229;28;20044;-81
2023/07/08 07:45:27;;;;;;;4.57;2.25;;;;;;;;;;5039354;28;20369;-82
2023/07/08 07:47:53;;;;;;;5.43;2.08;;;;;;;;;;5056550;28;20044;-82
2023/07/08 07:50:18;;;;;;;4.57;2.40;;;;;;;;;;5039909;28;20415;-82
2023/07/08 07:52:43;;;;;;;4.15;2.03;;;;;;;;;;5025801;28;20116;-82
2023/07/08 07:55:09;;;;;;;4.80;2.40;;;;;;;;;;5035567;28;20046;-82
2023/07/08 07:57:34;;;;;;;4.50;2.47;;;;;;;;;;5035208;28;20054;-81
2023/07/08 08:00:00;;;;;;;6.47;2.33;;;;;;;;;;5038656;28;20056;-78
2023/07/08 08:02:25;;;;;;;4.13;2.30;;;;;;;;;;5058302;28;20041;-78
2023/07/08 08:04:51;;;;;;;4.07;2.15;;;;;;;;;;5042643;28;20059;-79
2023/07/08 08:07:16;;;;;;;6.47;2.15;;;;;;;;;;5054524;28;20131;-81
2023/07/08 08:09:44;;;;;;;5.65;2.25;;;;;;;;;;5051173;28;20166;-79
2023/07/08 08:12:11;;;;;;;4.75;2.20;;;;;;;;;;5068891;28;20580;-81
2023/07/08 08:14:37;;;;;;;4.95;2.33;;;;;;;;;;5051169;28;20028;-83
2023/07/08 08:17:02;;;;;;;3.67;2.15;;;;;;;;;;5041486;28;20067;-82
2023/07/08 08:19:28;;;;;;;5.55;2.20;;;;;;;;;;5052321;28;20025;-81
2023/07/08 08:21:54;;;;;;;8.18;2.30;;;;;;;;;;5040987;28;20074;-80
2023/07/08 08:24:19;;;;;;;4.60;2.25;;;;;;;;;;5051022;28;20174;-80
2023/07/08 08:26:45;;;;;;;4.63;2.30;;;;;;;;;;5045662;28;20545;-81
2023/07/08 08:29:11;;;;;;;5.10;2.28;;;;;;;;;;5067534;28;20540;-80
2023/07/08 08:31:37;;;;;;;3.80;1.90;;;;;;;;;;5037450;28;20242;-81
2023/07/08 08:34:03;;;;;;;3.50;1.73;;;;;;;;;;5036235;28;20393;-80
2023/07/08 08:36:28;;;;;;;5.47;2.20;;;;;;;;;;5022762;28;20037;-81
2023/07/08 08:38:53;;;;;;;4.22;2.10;;;;;;;;;;5061169;28;20036;-81
2023/07/08 08:41:25;;;;;;;5.30;1.90;;;;;;;;;;5042749;28;20129;-80
2023/07/08 08:43:50;;;;;;;3.40;1.80;;;;;;;;;;5068626;28;20036;-80
2023/07/08 08:46:26;;;;;;;4.85;1.83;;;;;;;;;;5043798;28;20029;-80
2023/07/08 08:49:02;;;;;;;3.30;1.60;;;;;;;;;;5036591;28;20025;-80
2023/07/08 08:51:30;;;;;;;2.95;1.67;;;;;;;;;;5041130;28;20033;-80
2023/07/08 08:53:57;;;;;;;3.60;1.80;;;;;;;;;;5020663;28;20041;-81
2023/07/08 08:56:29;;;;;;;2.90;1.58;;;;;;;;;;5030128;28;20049;-82
2023/07/08 08:59:02;;;;;;;3.65;1.70;;;;;;;;;;5024693;28;20042;-80
2023/07/08 09:01:27;;;;;;;4.82;1.90;;;;;;;;;;5045573;28;21136;-80
2023/07/08 09:04:08;;;;;;;4.57;1.80;;;;;;;;;;5039808;28;20037;-81
2023/07/08 09:06:34;;;;;;;5.25;1.80;;;;;;;;;;5037662;28;20112;-82
2023/07/08 09:09:21;;;;;;;3.70;1.30;;;;;;;;;;5046535;28;20401;-82
2023/07/08 09:12:10;;;;;;;2.33;1.20;;;;;;;;;;5043123;28;20112;-81
2023/07/08 09:14:46;;;;;;;3.97;1.42;;;;;;;;;;5034051;28;20036;-81
2023/07/08 09:17:23;;;;;;;2.75;1.35;;;;;;;;;;5017497;28;20171;-81
2023/07/08 09:19:58;;;;;;;3.45;1.42;;;;;;;;;;5024643;28;20492;-82
2023/07/08 09:22:46;;;;;;;3.97;1.70;;;;;;;;;;5028921;28;20044;-81
2023/07/08 09:25:26;;;;;;;2.30;1.20;;;;;;;;;;5035856;28;20037;-82
2023/07/08 09:27:52;;;;;;;5.15;1.65;;;;;;;;;;5020651;28;20052;-82
2023/07/08 09:30:23;;;;;;;3.87;1.70;;;;;;;;;;5015905;28;20034;-81
2023/07/08 09:32:49;;;;;;;2.97;1.50;;;;;;;;;;5037057;28;20037;-82
2023/07/08 09:35:22;;;;;;;3.15;1.38;;;;;;;;;;5027077;28;20707;-81
2023/07/08 09:37:50;;;;;;;3.10;1.15;;;;;;;;;;5028397;28;20035;-82
2023/07/08 09:40:18;;;;;;;3.17;1.30;;;;;;;;;;5051548;28;20037;-80
2023/07/08 09:42:49;;;;;;;4.50;1.38;;;;;;;;;;5072290;28;20377;-81
2023/07/08 09:45:19;;;;;;;2.83;1.30;;;;;;;;;;5027819;28;20033;-80
2023/07/08 09:47:45;;;;;;;4.40;1.20;;;;;;;;;;5048409;28;20128;-81
2023/07/08 09:50:28;;;;;;;3.83;1.30;;;;;;;;;;5047380;28;20039;-81
2023/07/08 09:52:57;;;;;;;2.92;1.20;;;;;;;;;;5053093;28;20082;-81
2023/07/08 09:55:22;;;;;;;3.58;1.10;;;;;;;;;;5033410;28;20476;-80
2023/07/08 09:57:50;;;;;;;3.97;1.10;;;;;;;;;;5045307;28;20032;-80
2023/07/08 10:00:18;;;;;;;3.00;1.25;;;;;;;;;;5064257;28;20033;-82
2023/07/08 10:02:53;;;;;;;3.47;1.15;;;;;;;;;;5043040;28;20037;-81
2023/07/08 10:05:41;;;;;;;3.87;1.30;;;;;;;;;;5059812;28;20132;-80
2023/07/08 10:08:19;;;;;;;3.38;1.25;;;;;;;;;;5045526;28;20040;-82
2023/07/08 10:10:52;;;;;;;3.85;1.17;;;;;;;;;;5049253;28;20512;-81
2023/07/08 10:13:24;;;;;;;2.25;1.10;;;;;;;;;;5033562;28;20036;-81
2023/07/08 10:15:56;;;;;;;2.75;1.40;;;;;;;;;;5021088;28;20029;-81
2023/07/08 10:18:29;;;;;;;2.03;1.00;;;;;;;;;;5017199;28;20044;-82
2023/07/08 10:21:01;;;;;;;4.50;1.23;;;;;;;;;;5038937;28;20370;-82
2023/07/08 10:24:08;;;;;;;2.63;1.10;;;;;;;;;;5023372;28;20033;-81
2023/07/08 10:26:34;;;;;;;3.17;1.20;;;;;;;;;;4987388;28;20312;-82
2023/07/08 10:29:14;;;;;;;2.40;1.00;;;;;;;;;;4985908;28;20193;-81
2023/07/08 10:32:04;;;;;;;4.38;1.38;;;;;;;;;;5009646;28;20113;-82
2023/07/08 10:34:45;;;;;;;2.25;1.13;;;;;;;;;;5015636;28;20867;-82
2023/07/08 10:37:29;;;;;;;2.55;1.17;;;;;;;;;;5019962;28;20044;-81
2023/07/08 10:40:07;;;;;;;3.20;1.33;;;;;;;;;;5016309;28;20085;-80
2023/07/08 10:42:38;;;;;;;2.88;1.40;;;;;;;;;;4998518;28;20030;-82
2023/07/08 10:45:31;;;;;;;4.97;1.23;;;;;;;;;;5006384;28;20042;-81
2023/07/08 10:48:33;;;;;;;4.00;1.27;;;;;;;;;;4970381;28;20067;-81
2023/07/08 10:51:26;;;;;;;3.30;1.30;;;;;;;;;;4966945;28;20133;-81
2023/07/08 10:53:52;;;;;;;3.85;1.40;;;;;;;;;;4968686;28;20043;-81
2023/07/08 10:56:29;;;;;;;3.17;1.30;;;;;;;;;;4960562;28;20129;-82
2023/07/08 10:59:17;;;;;;;3.78;1.50;;;;;;;;;;4972952;28;20133;-82
2023/07/08 11:02:08;;;;;;;2.60;1.20;;;;;;;;;;4997457;28;20042;-82
2023/07/08 11:04:34;;;;;;;3.35;1.17;;;;;;;;;;4979201;28;20038;-82
2023/07/08 11:07:14;;;;;;;2.28;1.10;;;;;;;;;;4998069;28;20040;-82
2023/07/08 11:09:56;;;;;;;2.47;1.13;;;;;;;;;;4968111;28;20042;-81
2023/07/08 11:12:36;;;;;;;2.58;1.20;;;;;;;;;;4960034;28;20514;-79
2023/07/08 11:15:14;;;;;;;3.60;1.48;;;;;;;;;;4997080;28;20483;-81
2023/07/08 11:17:49;;;;;;;3.67;1.20;;;;;;;;;;4984086;28;20037;-81
2023/07/08 11:20:24;;;;;;;4.30;1.45;;;;;;;;;;4964655;28;20049;-83
2023/07/08 11:22:57;;;;;;;3.47;1.30;;;;;;;;;;4970412;28;20033;-82
2023/07/08 11:25:32;;;;;;;2.50;1.20;;;;;;;;;;5016242;28;20370;-82
2023/07/08 11:28:00;;;;;;;2.80;1.30;;;;;;;;;;5036200;28;20045;-82
2023/07/08 11:30:29;;;;;;;3.00;1.17;;;;;;;;;;5066882;28;20507;-82
2023/07/08 11:33:00;;;;;;;3.60;1.30;;;;;;;;;;5050487;28;20491;-81
2023/07/08 11:35:42;;;;;;;4.03;1.38;;;;;;;;;;5041714;28;20548;-82
2023/07/08 11:38:15;;;;;;;2.80;1.10;;;;;;;;;;5042046;28;20028;-81
2023/07/08 11:40:59;;;;;;;3.60;1.25;;;;;;;;;;5067020;28;20040;-81
2023/07/08 11:43:27;;;;;;;4.57;1.20;;;;;;;;;;5040932;28;20041;-80
2023/07/08 11:45:56;;;;;;;2.15;1.20;;;;;;;;;;5041944;28;20558;-80
2023/07/08 11:48:29;;;;;;;4.25;1.30;;;;;;;;;;5056425;28;20068;-81
2023/07/08 11:50:55;;;;;;;2.72;1.20;;;;;;;;;;5050014;28;20374;-81
2023/07/08 11:53:29;;;;;;;2.20;1.20;;;;;;;;;;5045419;28;20090;-79
2023/07/08 11:55:59;;;;;;;2.25;1.20;;;;;;;;;;5066766;28;20029;-80
2023/07/08 11:58:29;;;;;;;2.63;1.30;;;;;;;;;;5054390;28;20087;-81
2023/07/08 12:01:10;;;;;;;3.20;1.40;;;;;;;;;;5049334;28;20029;-82
2023/07/08 12:03:48;;;;;;;2.53;1.30;;;;;;;;;;5059317;28;20102;-82
2023/07/08 12:06:32;;;;;;;3.40;1.52;;;;;;;;;;5050604;28;20029;-82
2023/07/08 12:08:59;;;;;;;4.82;1.50;;;;;;;;;;5048042;28;20527;-81
2023/07/08 12:11:30;;;;;;;3.15;1.60;;;;;;;;;;5031229;28;20424;-82
2023/07/08 12:13:58;;;;;;;5.03;1.50;;;;;;;;;;5031308;28;20093;-82
2023/07/08 12:16:24;;;;;;;3.15;1.70;;;;;;;;;;5053522;28;20063;-83
2023/07/08 12:18:49;;;;;;;4.90;2.00;;;;;;;;;;5045325;28;20056;-83
2023/07/08 12:21:27;;;;;;;5.13;1.50;;;;;;;;;;5038649;28;20631;-83
2023/07/08 12:23:53;;;;;;;3.03;1.52;;;;;;;;;;5027612;28;20037;-84
2023/07/08 12:26:21;;;;;;;3.22;1.60;;;;;;;;;;5038223;28;20108;-84
2023/07/08 12:28:47;;;;;;;3.58;1.70;;;;;;;;;;5053432;28;20056;-81
2023/07/08 12:31:19;;;;;;;4.00;1.60;;;;;;;;;;5038095;28;20067;-84
2023/07/08 12:33:45;;;;;;;4.15;1.50;;;;;;;;;;5038276;28;20544;-84
2023/07/08 12:36:15;;;;;;;4.18;1.60;;;;;;;;;;5037312;28;20111;-83
2023/07/08 12:38:41;;;;;;;3.72;1.52;;;;;;;;;;5042219;28;20116;-84
2023/07/08 12:41:16;;;;;;;3.70;1.73;;;;;;;;;;5033214;28;20584;-84
2023/07/08 12:43:41;;;;;;;2.97;1.63;;;;;;;;;;5071445;28;20488;-84
2023/07/08 12:46:10;;;;;;;3.77;2.00;;;;;;;;;;5053389;28;20060;-84
2023/07/08 12:48:37;;;;;;;3.70;1.73;;;;;;;;;;5056459;28;20045;-84
2023/07/08 12:51:03;;;;;;;3.92;1.98;;;;;;;;;;5044903;28;20029;-83
2023/07/08 12:53:28;;;;;;;4.10;1.90;;;;;;;;;;5030062;28;20028;-84
2023/07/08 12:55:58;;;;;;;3.22;1.83;;;;;;;;;;5053022;28;20034;-85
2023/07/08 12:58:27;;;;;;;4.05;2.20;;;;;;;;;;5044925;28;20048;-84
2023/07/08 13:01:00;;;;;;;3.83;2.00;;;;;;;;;;5034853;28;20358;-84
2023/07/08 13:03:30;;;;;;;4.40;2.10;;;;;;;;;;5032251;28;20064;-84
2023/07/08 13:05:57;;;;;;;4.38;1.88;;;;;;;;;;5041050;28;20107;-83
2023/07/08 13:08:40;;;;;;;4.20;1.98;;;;;;;;;;5034693;28;20051;-84
2023/07/08 13:11:06;;;;;;;3.58;2.13;;;;;;;;;;5031900;28;20110;-82
2023/07/08 13:13:42;;;;;;;3.13;1.85;;;;;;;;;;5036905;28;20037;-83
2023/07/08 13:16:17;;;;;;;3.72;1.70;;;;;;;;;;5051009;28;20033;-83
2023/07/08 13:18:42;;;;;;;4.22;1.88;;;;;;;;;;5026265;28;20550;-84
2023/07/08 13:21:15;;;;;;;3.90;2.00;;;;;;;;;;5046900;28;20045;-85
2023/07/08 13:23:42;;;;;;;3.90;2.20;;;;;;;;;;5049342;28;20037;-85
2023/07/08 13:26:15;;;;;;;3.40;1.90;;;;;;;;;;5034869;28;20032;-84
2023/07/08 13:28:40;;;;;;;4.22;1.70;;;;;;;;;;5052166;28;20540;-84
2023/07/08 13:31:22;;;;;;;3.17;1.60;;;;;;;;;;5042643;28;20120;-85
2023/07/08 13:33:53;;;;;;;3.03;1.58;;;;;;;;;;5049168;28;20596;-86
2023/07/08 13:36:29;;;;;;;3.58;1.42;;;;;;;;;;5038340;28;20040;-85
2023/07/08 13:38:58;;;;;;;3.95;1.58;;;;;;;;;;5040947;28;20368;-84
2023/07/08 13:41:50;;;;;;;2.97;1.48;;;;;;;;;;5046507;28;20065;-86
2023/07/08 13:45:05;;;;;;;3.53;1.65;;;;;;;;;;5053995;28;20040;-84
2023/07/08 13:48:06;;;;;;;2.95;1.50;;;;;;;;;;5021320;28;20041;-85
2023/07/08 13:54:38;;;;;;;3.00;1.55;;;;;;;;;;4991163;28;20402;-85
2023/07/08 13:57:10;;;;;;;2.70;1.55;;;;;;;;;;4971262;28;20093;-83
2023/07/08 13:59:59;;;;;;;2.75;1.50;;;;;;;;;;4987687;28;20041;-84
2023/07/08 14:02:28;;;;;;;3.10;1.50;;;;;;;;;;4988504;28;20034;-84
2023/07/08 14:04:57;;;;;;;4.72;1.70;;;;;;;;;;4984633;28;20041;-84
2023/07/08 14:07:41;;;;;;;2.90;1.40;;;;;;;;;;4979423;28;20025;-83
2023/07/08 14:10:11;;;;;;;3.80;1.40;;;;;;;;;;4992813;28;20045;-83
2023/07/08 14:12:36;;;;;;;3.30;1.48;;;;;;;;;;4985256;28;20056;-83
2023/07/08 14:15:03;;;;;;;3.50;1.70;;;;;;;;;;4978121;28;20389;-84
2023/07/08 14:17:28;;;;;;;4.90;1.70;;;;;;;;;;4994432;28;20041;-84
2023/07/08 14:19:54;;;;;;;6.03;1.50;;;;;;;;;;4979954;28;20073;-83
2023/07/08 14:22:23;;;;;;;3.10;1.67;;;;;;;;;;4979758;28;20477;-85
2023/07/08 14:24:58;;;;;;;3.88;1.83;;;;;;;;;;4971182;28;20044;-84
2023/07/08 14:27:28;;;;;;;3.53;1.88;;;;;;;;;;5013416;28;20114;-84
2023/07/08 14:29:53;;;;;;;3.22;1.83;;;;;;;;;;5009226;28;20037;-84
2023/07/08 14:32:32;;;;;;;4.93;1.90;;;;;;;;;;5050523;28;20041;-84
2023/07/08 14:35:23;;;;;;;4.60;2.20;;;;;;;;;;5023792;28;20463;-83
2023/07/08 14:37:48;;;;;;;3.30;2.00;;;;;;;;;;5021325;28;20424;-84
2023/07/08 14:40:23;;;;;;;4.70;2.10;;;;;;;;;;5029127;28;20126;-83
2023/07/08 14:42:50;;;;;;;4.63;2.17;;;;;;;;;;5049932;28;20026;-83
2023/07/08 14:45:15;;;;;;;4.80;2.10;;;;;;;;;;5041453;28;20033;-85
2023/07/08 14:47:49;;;;;;;3.67;2.00;;;;;;;;;;5023385;28;20029;-84
2023/07/08 14:50:15;;;;;;;4.72;2.33;;;;;;;;;;5022450;28;21032;-84
2023/07/08 14:52:41;;;;;;;3.22;2.00;;;;;;;;;;5027499;28;20484;-84
2023/07/08 14:55:08;;;;;;;3.08;1.80;;;;;;;;;;5021436;28;20033;-82
2023/07/08 14:57:37;;;;;;;;;;;;;;;;;;5020162;28;20037;-82
2023/07/08 15:00:05;;;;;;;3.65;1.80;;;;;;;;;;5035013;28;19924;-84
2023/07/08 15:02:30;;;;;;;4.05;1.90;;;;;;;;;;5034834;28;20392;-84